sensor_id;sensor_type;location;lat;lon;timestamp;pressure;altitude;pressure_sealevel;temperature;humidity
31585;BME280;18191;51.288;12.390;2022-12-20T00:01:56;49187.88;;;-144.47;83.39
31585;BME280;18191;51.288;12.390;2022-12-20T00:06:46;49195.84;;;-144.47;82.49
31585;BME280;18191;51.288;12.390;2022-12-20T00:11:40;49156.03;;;-144.47;82.90
31585;BME280;18191;51.288;12.390;2022-12-20T00:16:31;49195.84;;;-144.47;82.86
31585;BME280;18191;51.288;12.390;2022-12-20T00:21:21;49195.84;;;-144.47;83.33
31585;BME280;18191;51.288;12.390;2022-12-20T00:26:15;49203.78;;;-144.47;84.02
31585;BME280;18191;51.288;12.390;2022-12-20T00:31:06;49189.88;;;-144.47;83.27
31585;BME280;18191;51.288;12.390;2022-12-20T00:35:57;49191.84;;;-144.47;82.35
31585;BME280;18191;51.288;12.390;2022-12-20T00:40:57;49187.88;;;-144.47;83.30
31585;BME280;18191;51.288;12.390;2022-12-20T00:45:47;49169.97;;;-144.47;82.01
31585;BME280;18191;51.288;12.390;2022-12-20T00:50:38;49175.94;;;-144.47;82.34
31585;BME280;18191;51.288;12.390;2022-12-20T00:55:28;49179.91;;;-144.47;84.09
31585;BME280;18191;51.288;12.390;2022-12-20T01:00:18;49156.03;;;-144.47;83.50
31585;BME280;18191;51.288;12.390;2022-12-20T01:05:08;49193.84;;;-144.47;83.23
31585;BME280;18191;51.288;12.390;2022-12-20T01:09:59;49167.97;;;-144.47;83.17
31585;BME280;18191;51.288;12.390;2022-12-20T01:14:49;49171.97;;;-144.47;82.28
31585;BME280;18191;51.288;12.390;2022-12-20T01:19:39;49160.03;;;-144.47;83.72
31585;BME280;18191;51.288;12.390;2022-12-20T01:24:30;49215.72;;;-144.47;82.15
31585;BME280;18191;51.288;12.390;2022-12-20T01:29:20;49195.84;;;-144.47;81.63
31585;BME280;18191;51.288;12.390;2022-12-20T01:34:10;49211.75;;;-144.47;82.38
31585;BME280;18191;51.288;12.390;2022-12-20T01:39:05;49219.72;;;-144.47;82.81
31585;BME280;18191;51.288;12.390;2022-12-20T01:43:57;49209.75;;;-144.47;81.39
31585;BME280;18191;51.288;12.390;2022-12-20T01:48:57;49148.09;;;-144.47;81.89
31585;BME280;18191;51.288;12.390;2022-12-20T01:53:50;49227.66;;;-144.47;82.29
31585;BME280;18191;51.288;12.390;2022-12-20T01:58:43;49191.84;;;-144.47;81.69
31585;BME280;18191;51.288;12.390;2022-12-20T02:03:36;49183.91;;;-144.47;80.63
31585;BME280;18191;51.288;12.390;2022-12-20T02:08:26;49195.84;;;-144.47;80.59
31585;BME280;18191;51.288;12.390;2022-12-20T02:14:01;49187.88;;;-144.47;81.11
31585;BME280;18191;51.288;12.390;2022-12-20T02:28:37;49187.88;;;-144.47;80.99
31585;BME280;18191;51.288;12.390;2022-12-20T02:33:32;49199.81;;;-144.47;81.72
31585;BME280;18191;51.288;12.390;2022-12-20T02:38:27;49171.97;;;-144.47;81.62
31585;BME280;18191;51.288;12.390;2022-12-20T02:43:18;49189.88;;;-144.47;82.77
31585;BME280;18191;51.288;12.390;2022-12-20T02:48:29;49179.91;;;-144.47;83.14
31585;BME280;18191;51.288;12.390;2022-12-20T02:53:22;49223.69;;;-144.47;84.97
31585;BME280;18191;51.288;12.390;2022-12-20T02:58:46;49195.84;;;-144.47;86.52
31585;BME280;18191;51.288;12.390;2022-12-20T03:03:32;49183.91;;;-144.47;87.75
31585;BME280;18191;51.288;12.390;2022-12-20T03:08:23;49199.81;;;-144.47;87.34
31585;BME280;18191;51.288;12.390;2022-12-20T03:13:14;49215.72;;;-144.47;89.54
31585;BME280;18191;51.288;12.390;2022-12-20T03:18:04;49183.91;;;-144.47;89.53
31585;BME280;18191;51.288;12.390;2022-12-20T03:22:55;49167.97;;;-144.47;89.39
31585;BME280;18191;51.288;12.390;2022-12-20T03:27:45;49199.81;;;-144.47;91.23
31585;BME280;18191;51.288;12.390;2022-12-20T03:32:35;49166.00;;;-144.47;91.73
31585;BME280;18191;51.288;12.390;2022-12-20T03:37:25;49191.84;;;-144.47;92.47
31585;BME280;18191;51.288;12.390;2022-12-20T03:42:15;49239.59;;;-144.47;92.56
31585;BME280;18191;51.288;12.390;2022-12-20T03:47:06;49195.84;;;-144.47;92.31
31585;BME280;18191;51.288;12.390;2022-12-20T03:51:56;49227.66;;;-144.47;94.00
31585;BME280;18191;51.288;12.390;2022-12-20T03:56:46;49195.84;;;-144.47;95.70
31585;BME280;18191;51.288;12.390;2022-12-20T04:01:36;49205.78;;;-144.47;95.87
31585;BME280;18191;51.288;12.390;2022-12-20T04:06:27;49207.78;;;-144.47;96.74
31585;BME280;18191;51.288;12.390;2022-12-20T04:11:18;49199.81;;;-144.47;96.93
31585;BME280;18191;51.288;12.390;2022-12-20T04:16:08;49183.91;;;-144.47;96.98
31585;BME280;18191;51.288;12.390;2022-12-20T04:20:59;49203.78;;;-144.47;97.07
31585;BME280;18191;51.288;12.390;2022-12-20T04:25:56;49223.69;;;-144.47;96.84
31585;BME280;18191;51.288;12.390;2022-12-20T04:30:52;49255.50;;;-144.47;96.51
31585;BME280;18191;51.288;12.390;2022-12-20T04:35:42;49231.63;;;-144.47;96.80
31585;BME280;18191;51.288;12.390;2022-12-20T04:40:33;49207.78;;;-144.47;96.51
31585;BME280;18191;51.288;12.390;2022-12-20T04:45:32;49223.69;;;-144.47;96.45
31585;BME280;18191;51.288;12.390;2022-12-20T04:50:22;49215.72;;;-144.47;96.45
31585;BME280;18191;51.288;12.390;2022-12-20T04:55:13;49211.75;;;-144.47;96.40
31585;BME280;18191;51.288;12.390;2022-12-20T05:00:03;49243.56;;;-144.47;96.39
31585;BME280;18191;51.288;12.390;2022-12-20T05:04:53;49215.72;;;-144.47;94.82
31585;BME280;18191;51.288;12.390;2022-12-20T05:09:43;49199.81;;;-144.47;95.16
31585;BME280;18191;51.288;12.390;2022-12-20T05:14:34;49221.69;;;-144.47;95.35
31585;BME280;18191;51.288;12.390;2022-12-20T05:19:24;49179.91;;;-144.47;95.76
31585;BME280;18191;51.288;12.390;2022-12-20T05:24:14;49211.75;;;-144.47;95.86
31585;BME280;18191;51.288;12.390;2022-12-20T05:29:29;49223.69;;;-144.47;94.85
31585;BME280;18191;51.288;12.390;2022-12-20T05:34:20;49199.81;;;-144.47;94.52
31585;BME280;18191;51.288;12.390;2022-12-20T05:39:10;49235.63;;;-144.47;94.63
31585;BME280;18191;51.288;12.390;2022-12-20T05:44:03;49203.78;;;-144.47;94.75
31585;BME280;18191;51.288;12.390;2022-12-20T05:48:53;49231.63;;;-144.47;94.21
31585;BME280;18191;51.288;12.390;2022-12-20T05:53:43;49187.88;;;-144.47;93.99
31585;BME280;18191;51.288;12.390;2022-12-20T05:58:34;49227.66;;;-144.47;93.73
31585;BME280;18191;51.288;12.390;2022-12-20T06:03:24;49191.84;;;-144.47;94.12
31585;BME280;18191;51.288;12.390;2022-12-20T06:08:14;49219.72;;;-144.47;92.67
31585;BME280;18191;51.288;12.390;2022-12-20T06:13:05;49199.81;;;-144.47;93.35
31585;BME280;18191;51.288;12.390;2022-12-20T06:17:55;49267.44;;;-144.47;92.49
31585;BME280;18191;51.288;12.390;2022-12-20T06:22:52;49223.69;;;-144.47;92.42
31585;BME280;18191;51.288;12.390;2022-12-20T06:27:42;49203.78;;;-144.47;92.33
31585;BME280;18191;51.288;12.390;2022-12-20T06:32:32;49235.63;;;-144.47;92.34
31585;BME280;18191;51.288;12.390;2022-12-20T06:37:23;49183.91;;;-144.47;93.21
31585;BME280;18191;51.288;12.390;2022-12-20T06:42:13;49197.81;;;-144.47;92.50
31585;BME280;18191;51.288;12.390;2022-12-20T06:47:03;49162.00;;;-144.47;93.82
31585;BME280;18191;51.288;12.390;2022-12-20T06:51:53;49221.69;;;-144.47;95.13
31585;BME280;18191;51.288;12.390;2022-12-20T06:56:43;49199.81;;;-144.47;95.09
31585;BME280;18191;51.288;12.390;2022-12-20T07:01:34;49241.59;;;-144.47;94.73
31585;BME280;18191;51.288;12.390;2022-12-20T07:06:24;49239.59;;;-144.47;94.08
31585;BME280;18191;51.288;12.390;2022-12-20T07:11:15;49227.66;;;-144.47;94.13
31585;BME280;18191;51.288;12.390;2022-12-20T07:16:06;49199.81;;;-144.47;93.09
31585;BME280;18191;51.288;12.390;2022-12-20T07:21:00;49193.84;;;-144.47;93.10
31585;BME280;18191;51.288;12.390;2022-12-20T07:25:54;49243.56;;;-144.47;92.34
31585;BME280;18191;51.288;12.390;2022-12-20T07:30:44;49199.81;;;-144.47;92.10
31585;BME280;18191;51.288;12.390;2022-12-20T07:35:34;49211.75;;;-144.47;91.57
31585;BME280;18191;51.288;12.390;2022-12-20T07:40:24;49225.66;;;-144.47;91.77
31585;BME280;18191;51.288;12.390;2022-12-20T07:45:15;49203.78;;;-144.47;90.81
31585;BME280;18191;51.288;12.390;2022-12-20T07:50:05;49179.91;;;-144.47;90.18
31585;BME280;18191;51.288;12.390;2022-12-20T07:54:57;49213.75;;;-144.47;90.07
31585;BME280;18191;51.288;12.390;2022-12-20T07:59:51;49219.72;;;-144.47;88.52
31585;BME280;18191;51.288;12.390;2022-12-20T08:04:43;49211.75;;;-144.47;88.25
31585;BME280;18191;51.288;12.390;2022-12-20T08:09:34;49199.81;;;-144.47;88.42
31585;BME280;18191;51.288;12.390;2022-12-20T08:14:26;49207.78;;;-144.47;88.69
31585;BME280;18191;51.288;12.390;2022-12-20T08:19:16;49179.91;;;-144.47;89.51
31585;BME280;18191;51.288;12.390;2022-12-20T08:24:07;49205.78;;;-144.47;88.63
31585;BME280;18191;51.288;12.390;2022-12-20T08:28:57;49183.91;;;-144.47;89.08
31585;BME280;18191;51.288;12.390;2022-12-20T08:33:47;49215.72;;;-144.47;88.44
31585;BME280;18191;51.288;12.390;2022-12-20T08:38:38;49191.84;;;-144.47;88.64
31585;BME280;18191;51.288;12.390;2022-12-20T08:43:28;49223.69;;;-144.47;89.25
31585;BME280;18191;51.288;12.390;2022-12-20T08:48:19;49207.78;;;-144.47;86.76
31585;BME280;18191;51.288;12.390;2022-12-20T08:53:09;49215.72;;;-144.47;87.09
31585;BME280;18191;51.288;12.390;2022-12-20T08:57:59;49251.53;;;-144.47;85.97
31585;BME280;18191;51.288;12.390;2022-12-20T09:02:50;49203.78;;;-144.47;84.39
31585;BME280;18191;51.288;12.390;2022-12-20T09:07:40;49189.88;;;-144.47;84.45
31585;BME280;18191;51.288;12.390;2022-12-20T09:12:30;49197.81;;;-144.47;85.15
31585;BME280;18191;51.288;12.390;2022-12-20T09:17:21;49205.78;;;-144.47;84.91
31585;BME280;18191;51.288;12.390;2022-12-20T09:22:11;49223.69;;;-144.47;83.27
31585;BME280;18191;51.288;12.390;2022-12-20T09:27:01;49235.63;;;-144.47;85.32
31585;BME280;18191;51.288;12.390;2022-12-20T09:31:51;49203.78;;;-144.47;86.11
31585;BME280;18191;51.288;12.390;2022-12-20T09:36:41;49251.53;;;-144.47;85.71
31585;BME280;18191;51.288;12.390;2022-12-20T09:41:38;49191.84;;;-144.47;84.28
31585;BME280;18191;51.288;12.390;2022-12-20T09:46:29;49199.81;;;-144.47;84.31
31585;BME280;18191;51.288;12.390;2022-12-20T09:56:14;49203.78;;;-144.47;83.65
31585;BME280;18191;51.288;12.390;2022-12-20T10:01:19;49215.72;;;-144.47;82.62
31585;BME280;18191;51.288;12.390;2022-12-20T10:11:07;49219.72;;;-144.47;81.76
31585;BME280;18191;51.288;12.390;2022-12-20T10:25:53;49201.81;;;-144.47;80.57
31585;BME280;18191;51.288;12.390;2022-12-20T10:30:50;49211.75;;;-144.47;79.79
31585;BME280;18191;51.288;12.390;2022-12-20T10:35:40;49203.78;;;-144.47;79.53
31585;BME280;18191;51.288;12.390;2022-12-20T10:40:33;49179.91;;;-144.47;78.14
31585;BME280;18191;51.288;12.390;2022-12-20T10:45:54;49167.97;;;-144.47;78.24
31585;BME280;18191;51.288;12.390;2022-12-20T10:50:35;49199.81;;;-144.47;79.03
31585;BME280;18191;51.288;12.390;2022-12-20T11:00:28;49199.81;;;-144.47;77.13
31585;BME280;18191;51.288;12.390;2022-12-20T11:05:22;49233.63;;;-144.47;75.94
31585;BME280;18191;51.288;12.390;2022-12-20T11:10:17;49191.84;;;-144.47;76.01
31585;BME280;18191;51.288;12.390;2022-12-20T11:15:09;49187.88;;;-144.47;75.96
31585;BME280;18191;51.288;12.390;2022-12-20T11:30:27;49205.78;;;-144.47;74.36
31585;BME280;18191;51.288;12.390;2022-12-20T11:40:35;49183.91;;;-144.47;75.43
31585;BME280;18191;51.288;12.390;2022-12-20T11:55:46;49217.72;;;-144.47;74.01
31585;BME280;18191;51.288;12.390;2022-12-20T12:00:38;49207.78;;;-144.47;75.16
31585;BME280;18191;51.288;12.390;2022-12-20T12:10:29;49164.00;;;-144.47;73.66
31585;BME280;18191;51.288;12.390;2022-12-20T12:15:26;49203.78;;;-144.47;73.23
31585;BME280;18191;51.288;12.390;2022-12-20T12:25:29;49211.75;;;-144.47;72.61
31585;BME280;18191;51.288;12.390;2022-12-20T12:30:20;49217.72;;;-144.47;73.26
31585;BME280;18191;51.288;12.390;2022-12-20T12:40:08;49231.63;;;-144.47;72.22
31585;BME280;18191;51.288;12.390;2022-12-20T12:50:03;49187.88;;;-144.47;71.39
31585;BME280;18191;51.288;12.390;2022-12-20T12:54:54;49219.72;;;-144.47;72.68
31585;BME280;18191;51.288;12.390;2022-12-20T12:59:44;49195.84;;;-144.47;72.76
31585;BME280;18191;51.288;12.390;2022-12-20T13:09:45;49215.72;;;-144.47;71.68
31585;BME280;18191;51.288;12.390;2022-12-20T13:29:34;49187.88;;;-144.47;72.75
31585;BME280;18191;51.288;12.390;2022-12-20T13:34:35;49229.66;;;-144.47;73.32
31585;BME280;18191;51.288;12.390;2022-12-20T13:49:10;49146.09;;;-144.47;73.09
31585;BME280;18191;51.288;12.390;2022-12-20T13:54:02;49197.81;;;-144.47;72.18
31585;BME280;18191;51.288;12.390;2022-12-20T13:58:53;49199.81;;;-144.47;72.56
31585;BME280;18191;51.288;12.390;2022-12-20T14:03:44;49203.78;;;-144.47;72.73
31585;BME280;18191;51.288;12.390;2022-12-20T14:08:36;49231.63;;;-144.47;72.28
31585;BME280;18191;51.288;12.390;2022-12-20T14:13:28;49227.66;;;-144.47;71.82
31585;BME280;18191;51.288;12.390;2022-12-20T14:18:20;49187.88;;;-144.47;72.04
31585;BME280;18191;51.288;12.390;2022-12-20T14:23:15;49231.63;;;-144.47;71.77
31585;BME280;18191;51.288;12.390;2022-12-20T14:28:11;49227.66;;;-144.47;71.37
31585;BME280;18191;51.288;12.390;2022-12-20T14:33:12;49164.00;;;-144.47;72.36
31585;BME280;18191;51.288;12.390;2022-12-20T14:38:04;49167.97;;;-144.47;72.14
31585;BME280;18191;51.288;12.390;2022-12-20T14:42:54;49195.84;;;-144.47;73.54
31585;BME280;18191;51.288;12.390;2022-12-20T14:52:47;49197.81;;;-144.47;73.76
31585;BME280;18191;51.288;12.390;2022-12-20T14:57:39;49187.88;;;-144.47;74.85
31585;BME280;18191;51.288;12.390;2022-12-20T15:02:33;49183.91;;;-144.47;75.29
31585;BME280;18191;51.288;12.390;2022-12-20T15:07:28;49175.94;;;-144.47;74.57
31585;BME280;18191;51.288;12.390;2022-12-20T15:12:18;49187.88;;;-144.47;75.16
31585;BME280;18191;51.288;12.390;2022-12-20T15:17:09;49195.84;;;-144.47;75.80
31585;BME280;18191;51.288;12.390;2022-12-20T15:22:00;49203.78;;;-144.47;77.33
31585;BME280;18191;51.288;12.390;2022-12-20T15:26:50;49223.69;;;-144.47;76.50
31585;BME280;18191;51.288;12.390;2022-12-20T15:31:40;49199.81;;;-144.47;75.37
31585;BME280;18191;51.288;12.390;2022-12-20T15:36:30;49207.78;;;-144.47;75.91
31585;BME280;18191;51.288;12.390;2022-12-20T15:41:24;49207.78;;;-144.47;75.54
31585;BME280;18191;51.288;12.390;2022-12-20T15:46:15;49171.97;;;-144.47;74.83
31585;BME280;18191;51.288;12.390;2022-12-20T15:51:16;49187.88;;;-144.47;74.78
31585;BME280;18191;51.288;12.390;2022-12-20T15:56:07;49227.66;;;-144.47;74.58
31585;BME280;18191;51.288;12.390;2022-12-20T16:01:03;49199.81;;;-144.47;75.64
31585;BME280;18191;51.288;12.390;2022-12-20T16:05:53;49183.91;;;-144.47;75.02
31585;BME280;18191;51.288;12.390;2022-12-20T16:10:45;49201.81;;;-144.47;74.91
31585;BME280;18191;51.288;12.390;2022-12-20T16:15:35;49195.84;;;-144.47;74.85
31585;BME280;18191;51.288;12.390;2022-12-20T16:20:32;49195.84;;;-144.47;74.68
31585;BME280;18191;51.288;12.390;2022-12-20T16:25:24;49211.75;;;-144.47;74.69
31585;BME280;18191;51.288;12.390;2022-12-20T16:30:15;49215.72;;;-144.47;74.07
31585;BME280;18191;51.288;12.390;2022-12-20T16:35:05;49193.84;;;-144.47;74.00
31585;BME280;18191;51.288;12.390;2022-12-20T16:39:55;49215.72;;;-144.47;74.75
31585;BME280;18191;51.288;12.390;2022-12-20T16:44:45;49195.84;;;-144.47;75.73
31585;BME280;18191;51.288;12.390;2022-12-20T16:49:39;49205.78;;;-144.47;75.62
31585;BME280;18191;51.288;12.390;2022-12-20T16:54:29;49215.72;;;-144.47;75.39
31585;BME280;18191;51.288;12.390;2022-12-20T16:59:21;49227.66;;;-144.47;74.26
31585;BME280;18191;51.288;12.390;2022-12-20T17:04:16;49191.84;;;-144.47;75.20
31585;BME280;18191;51.288;12.390;2022-12-20T17:09:07;49183.91;;;-144.47;73.72
31585;BME280;18191;51.288;12.390;2022-12-20T17:13:57;49215.72;;;-144.47;74.47
31585;BME280;18191;51.288;12.390;2022-12-20T17:18:49;49207.78;;;-144.47;74.33
31585;BME280;18191;51.288;12.390;2022-12-20T17:23:39;49195.84;;;-144.47;74.79
31585;BME280;18191;51.288;12.390;2022-12-20T17:28:29;49175.94;;;-144.47;74.66
31585;BME280;18191;51.288;12.390;2022-12-20T17:33:19;49207.78;;;-144.47;74.64
31585;BME280;18191;51.288;12.390;2022-12-20T17:38:09;49199.81;;;-144.47;75.05
31585;BME280;18191;51.288;12.390;2022-12-20T17:43:00;49156.03;;;-144.47;74.91
31585;BME280;18191;51.288;12.390;2022-12-20T17:47:50;49219.72;;;-144.47;75.65
31585;BME280;18191;51.288;12.390;2022-12-20T17:52:41;49209.75;;;-144.47;75.13
31585;BME280;18191;51.288;12.390;2022-12-20T17:57:31;49191.84;;;-144.47;75.72
31585;BME280;18191;51.288;12.390;2022-12-20T18:02:22;49179.91;;;-144.47;74.86
31585;BME280;18191;51.288;12.390;2022-12-20T18:07:12;49177.94;;;-144.47;75.34
31585;BME280;18191;51.288;12.390;2022-12-20T18:12:02;49203.78;;;-144.47;75.72
31585;BME280;18191;51.288;12.390;2022-12-20T18:16:53;49185.88;;;-144.47;75.36
31585;BME280;18191;51.288;12.390;2022-12-20T18:21:44;49191.84;;;-144.47;74.31
31585;BME280;18191;51.288;12.390;2022-12-20T18:26:34;49215.72;;;-144.47;74.35
31585;BME280;18191;51.288;12.390;2022-12-20T18:31:25;49203.78;;;-144.47;74.63
31585;BME280;18191;51.288;12.390;2022-12-20T18:36:23;49171.97;;;-144.47;75.36
31585;BME280;18191;51.288;12.390;2022-12-20T18:41:15;49203.78;;;-144.47;74.58
31585;BME280;18191;51.288;12.390;2022-12-20T18:46:27;49181.91;;;-144.47;74.58
31585;BME280;18191;51.288;12.390;2022-12-20T18:51:17;49179.91;;;-144.47;74.61
31585;BME280;18191;51.288;12.390;2022-12-20T18:56:09;49173.94;;;-144.47;74.32
31585;BME280;18191;51.288;12.390;2022-12-20T19:01:00;49183.91;;;-144.47;74.04
31585;BME280;18191;51.288;12.390;2022-12-20T19:05:51;49215.72;;;-144.47;73.96
31585;BME280;18191;51.288;12.390;2022-12-20T19:10:42;49227.66;;;-144.47;73.37
31585;BME280;18191;51.288;12.390;2022-12-20T19:15:32;49227.66;;;-144.47;73.55
31585;BME280;18191;51.288;12.390;2022-12-20T19:20:22;49164.00;;;-144.47;73.21
31585;BME280;18191;51.288;12.390;2022-12-20T19:25:12;49215.72;;;-144.47;73.57
31585;BME280;18191;51.288;12.390;2022-12-20T19:30:03;49209.75;;;-144.47;74.24
31585;BME280;18191;51.288;12.390;2022-12-20T19:34:53;49187.88;;;-144.47;74.05
31585;BME280;18191;51.288;12.390;2022-12-20T19:39:43;49201.81;;;-144.47;77.04
31585;BME280;18191;51.288;12.390;2022-12-20T19:44:33;49195.84;;;-144.47;77.69
31585;BME280;18191;51.288;12.390;2022-12-20T19:49:24;49187.88;;;-144.47;78.83
31585;BME280;18191;51.288;12.390;2022-12-20T19:54:14;49195.84;;;-144.47;79.76
31585;BME280;18191;51.288;12.390;2022-12-20T19:59:04;49183.91;;;-144.47;80.26
31585;BME280;18191;51.288;12.390;2022-12-20T20:03:55;49209.75;;;-144.47;81.06
31585;BME280;18191;51.288;12.390;2022-12-20T20:08:46;49227.66;;;-144.47;82.12
31585;BME280;18191;51.288;12.390;2022-12-20T20:13:38;49211.75;;;-144.47;82.12
31585;BME280;18191;51.288;12.390;2022-12-20T20:18:28;49195.84;;;-144.47;82.43
31585;BME280;18191;51.288;12.390;2022-12-20T20:23:28;49203.78;;;-144.47;82.50
31585;BME280;18191;51.288;12.390;2022-12-20T20:28:18;49203.78;;;-144.47;81.55
31585;BME280;18191;51.288;12.390;2022-12-20T20:33:08;49231.63;;;-144.47;81.09
31585;BME280;18191;51.288;12.390;2022-12-20T20:38:01;49245.56;;;-144.47;81.17
31585;BME280;18191;51.288;12.390;2022-12-20T20:42:51;49195.84;;;-144.47;79.15
31585;BME280;18191;51.288;12.390;2022-12-20T20:47:41;49205.78;;;-144.47;78.83
31585;BME280;18191;51.288;12.390;2022-12-20T20:52:33;49207.78;;;-144.47;78.59
31585;BME280;18191;51.288;12.390;2022-12-20T20:57:23;49233.63;;;-144.47;78.59
31585;BME280;18191;51.288;12.390;2022-12-20T21:02:14;49195.84;;;-144.47;78.49
31585;BME280;18191;51.288;12.390;2022-12-20T21:07:04;49211.75;;;-144.47;78.05
31585;BME280;18191;51.288;12.390;2022-12-20T21:11:54;49203.78;;;-144.47;78.17
31585;BME280;18191;51.288;12.390;2022-12-20T21:16:44;49207.78;;;-144.47;77.57
31585;BME280;18191;51.288;12.390;2022-12-20T21:21:34;49205.78;;;-144.47;77.63
31585;BME280;18191;51.288;12.390;2022-12-20T21:26:25;49201.81;;;-144.47;77.97
31585;BME280;18191;51.288;12.390;2022-12-20T21:31:16;49221.69;;;-144.47;77.81
31585;BME280;18191;51.288;12.390;2022-12-20T21:36:07;49181.91;;;-144.47;77.31
31585;BME280;18191;51.288;12.390;2022-12-20T21:41:03;49195.84;;;-144.47;76.44
31585;BME280;18191;51.288;12.390;2022-12-20T21:45:53;49231.63;;;-144.47;76.39
31585;BME280;18191;51.288;12.390;2022-12-20T21:50:44;49179.91;;;-144.47;75.82
31585;BME280;18191;51.288;12.390;2022-12-20T21:55:35;49199.81;;;-144.47;75.72
31585;BME280;18191;51.288;12.390;2022-12-20T22:00:25;49231.63;;;-144.47;75.09
31585;BME280;18191;51.288;12.390;2022-12-20T22:05:15;49211.75;;;-144.47;75.25
31585;BME280;18191;51.288;12.390;2022-12-20T22:10:12;49205.78;;;-144.47;74.30
31585;BME280;18191;51.288;12.390;2022-12-20T22:15:02;49207.78;;;-144.47;74.68
31585;BME280;18191;51.288;12.390;2022-12-20T22:19:52;49195.84;;;-144.47;73.95
31585;BME280;18191;51.288;12.390;2022-12-20T22:24:42;49181.91;;;-144.47;73.51
31585;BME280;18191;51.288;12.390;2022-12-20T22:29:32;49187.88;;;-144.47;74.28
31585;BME280;18191;51.288;12.390;2022-12-20T22:34:23;49203.78;;;-144.47;74.02
31585;BME280;18191;51.288;12.390;2022-12-20T22:39:14;49215.72;;;-144.47;73.71
31585;BME280;18191;51.288;12.390;2022-12-20T22:44:04;49193.84;;;-144.47;73.11
31585;BME280;18191;51.288;12.390;2022-12-20T22:48:54;49183.91;;;-144.47;73.37
31585;BME280;18191;51.288;12.390;2022-12-20T22:53:45;49191.84;;;-144.47;72.79
31585;BME280;18191;51.288;12.390;2022-12-20T22:58:37;49223.69;;;-144.47;73.20
31585;BME280;18191;51.288;12.390;2022-12-20T23:03:27;49183.91;;;-144.47;72.73
31585;BME280;18191;51.288;12.390;2022-12-20T23:08:18;49205.78;;;-144.47;72.29
31585;BME280;18191;51.288;12.390;2022-12-20T23:13:12;49169.97;;;-144.47;72.35
31585;BME280;18191;51.288;12.390;2022-12-20T23:18:21;49183.91;;;-144.47;72.41
31585;BME280;18191;51.288;12.390;2022-12-20T23:23:11;49211.75;;;-144.47;72.45
31585;BME280;18191;51.288;12.390;2022-12-20T23:28:01;49144.09;;;-144.47;72.33
31585;BME280;18191;51.288;12.390;2022-12-20T23:32:58;49195.84;;;-144.47;71.73
31585;BME280;18191;51.288;12.390;2022-12-20T23:37:48;49187.88;;;-144.47;71.91
31585;BME280;18191;51.288;12.390;2022-12-20T23:42:39;49207.78;;;-144.47;72.72
31585;BME280;18191;51.288;12.390;2022-12-20T23:47:30;49203.78;;;-144.47;72.89
31585;BME280;18191;51.288;12.390;2022-12-20T23:52:20;49195.84;;;-144.47;74.31
31585;BME280;18191;51.288;12.390;2022-12-20T23:57:10;49167.97;;;-144.47;74.87
